createdAt,value
2019-01-29T00:00:59.005Z,1.10
2019-01-29T00:03:26.518Z,1.10
2019-01-29T00:05:54.009Z,1.10
2019-01-29T00:08:21.490Z,1.10
2019-01-29T00:10:48.873Z,1.10
2019-01-29T00:13:16.394Z,1.10
2019-01-29T00:15:43.846Z,1.10
2019-01-29T00:18:11.322Z,1.10
2019-01-29T00:20:38.810Z,1.10
2019-01-29T00:23:06.255Z,1.10
2019-01-29T00:25:33.769Z,1.10
2019-01-29T00:28:01.253Z,1.10
2019-01-29T00:30:28.760Z,1.00
2019-01-29T00:32:56.221Z,1.00
2019-01-29T00:35:23.680Z,1.00
2019-01-29T00:37:51.174Z,0.90
2019-01-29T00:40:19.123Z,0.90
2019-01-29T00:42:46.683Z,0.90
2019-01-29T00:45:14.266Z,0.90
2019-01-29T00:47:41.742Z,0.90
2019-01-29T00:50:10.754Z,0.80
2019-01-29T00:52:42.228Z,0.80
2019-01-29T00:55:08.851Z,0.80
2019-01-29T00:57:36.439Z,0.80
2019-01-29T01:00:06.622Z,0.80
2019-01-29T01:02:34.217Z,0.70
2019-01-29T01:05:01.689Z,0.70
2019-01-29T01:07:29.221Z,0.70
2019-01-29T01:09:57.479Z,0.70
2019-01-29T01:12:25.156Z,0.70
2019-01-29T01:14:52.661Z,0.70
2019-01-29T01:17:20.139Z,0.60
2019-01-29T01:19:47.605Z,0.70
2019-01-29T01:22:15.090Z,0.70
2019-01-29T01:24:42.596Z,0.60
2019-01-29T01:27:10.176Z,0.60
2019-01-29T01:29:37.692Z,0.60
2019-01-29T01:32:05.022Z,0.50
2019-01-29T01:34:33.550Z,0.50
2019-01-29T01:37:01.108Z,0.60
2019-01-29T01:39:28.607Z,0.60
2019-01-29T01:41:56.930Z,0.60
2019-01-29T01:44:24.363Z,0.60
2019-01-29T01:46:51.901Z,0.60
2019-01-29T01:49:21.070Z,0.60
2019-01-29T01:51:48.602Z,0.60
2019-01-29T01:54:16.416Z,0.60
2019-01-29T01:56:43.832Z,0.70
2019-01-29T01:59:11.365Z,0.60
2019-01-29T02:01:38.816Z,0.60
2019-01-29T02:04:06.309Z,0.60
2019-01-29T02:06:33.831Z,0.60
2019-01-29T02:09:01.687Z,0.60
2019-01-29T02:11:31.073Z,0.70
2019-01-29T02:13:58.656Z,0.70
2019-01-29T02:16:26.165Z,0.70
2019-01-29T02:18:53.971Z,0.70
2019-01-29T02:21:21.807Z,0.70
2019-01-29T02:23:49.369Z,0.70
2019-01-29T02:26:16.868Z,0.80
2019-01-29T02:28:44.348Z,0.80
2019-01-29T02:31:11.913Z,0.70
2019-01-29T02:33:39.455Z,0.80
2019-01-29T02:36:06.960Z,0.80
2019-01-29T02:38:34.752Z,0.80
2019-01-29T02:41:02.641Z,0.80
2019-01-29T02:43:30.320Z,0.80
2019-01-29T02:45:58.260Z,0.90
2019-01-29T02:48:26.713Z,0.90
2019-01-29T02:50:54.189Z,0.90
2019-01-29T02:53:21.652Z,0.90
2019-01-29T02:55:49.001Z,0.90
2019-01-29T02:58:16.781Z,0.90
2019-01-29T03:00:44.161Z,0.90
2019-01-29T03:03:11.560Z,0.90
2019-01-29T03:05:38.999Z,0.90
2019-01-29T03:08:06.378Z,0.90
2019-01-29T03:10:33.831Z,0.90
2019-01-29T03:13:01.445Z,0.90
2019-01-29T03:15:30.824Z,0.90
2019-01-29T03:17:58.615Z,0.90
2019-01-29T03:20:26.416Z,0.90
2019-01-29T03:22:55.309Z,0.90
2019-01-29T03:25:22.914Z,0.90
2019-01-29T03:27:50.431Z,0.90
2019-01-29T03:30:18.268Z,0.90
2019-01-29T03:32:45.750Z,0.90
2019-01-29T03:35:13.500Z,0.90
2019-01-29T03:37:41.047Z,0.80
2019-01-29T03:40:10.899Z,0.80
2019-01-29T03:42:40.808Z,0.80
2019-01-29T03:45:10.743Z,0.80
2019-01-29T03:47:38.233Z,0.80
2019-01-29T03:50:06.625Z,0.80
2019-01-29T03:52:34.229Z,0.80
2019-01-29T03:55:01.670Z,0.80
2019-01-29T03:57:29.191Z,0.70
2019-01-29T03:59:56.776Z,0.70
2019-01-29T04:02:24.273Z,0.70
2019-01-29T04:04:51.750Z,0.70
2019-01-29T04:07:19.292Z,0.70
2019-01-29T04:09:46.714Z,0.70
2019-01-29T04:12:14.209Z,0.60
2019-01-29T04:14:41.637Z,0.50
2019-01-29T04:17:09.026Z,0.50
2019-01-29T04:19:36.439Z,0.40
2019-01-29T04:22:05.229Z,0.40
2019-01-29T04:24:33.705Z,0.30
2019-01-29T04:27:01.201Z,0.20
2019-01-29T04:29:28.996Z,0.20
2019-01-29T04:31:56.526Z,0.10
2019-01-29T04:34:24.002Z,0.00
2019-01-29T04:36:51.490Z,0.00
2019-01-29T04:39:18.979Z,-0.10
2019-01-29T04:41:46.731Z,-0.10
2019-01-29T04:44:14.141Z,-0.10
2019-01-29T04:46:43.085Z,-0.10
2019-01-29T04:49:10.629Z,-0.10
2019-01-29T04:51:38.148Z,-0.20
2019-01-29T04:54:05.693Z,-0.20
2019-01-29T04:56:33.147Z,-0.30
2019-01-29T04:59:00.631Z,-0.30
2019-01-29T05:01:28.119Z,-0.30
2019-01-29T05:03:56.003Z,-0.30
2019-01-29T05:06:23.527Z,-0.30
2019-01-29T05:08:51.123Z,-0.30
2019-01-29T05:11:18.534Z,-0.30
2019-01-29T05:13:46.264Z,-0.30
2019-01-29T05:16:13.759Z,-0.40
2019-01-29T05:18:41.277Z,-0.40
2019-01-29T05:21:08.777Z,-0.40
2019-01-29T05:23:36.268Z,-0.40
2019-01-29T05:26:04.875Z,-0.30
2019-01-29T05:28:32.409Z,-0.30
2019-01-29T05:30:59.978Z,-0.30
2019-01-29T05:33:27.482Z,-0.30
2019-01-29T05:35:54.996Z,-0.20
2019-01-29T05:38:22.367Z,-0.20
2019-01-29T05:40:49.981Z,-0.20
2019-01-29T05:43:17.476Z,-0.20
2019-01-29T05:45:45.014Z,-0.20
2019-01-29T05:48:12.582Z,-0.20
2019-01-29T05:50:40.072Z,-0.10
2019-01-29T05:53:07.611Z,-0.10
2019-01-29T05:55:35.147Z,-0.10
2019-01-29T05:58:02.630Z,-0.10
2019-01-29T06:00:34.230Z,0.00
2019-01-29T06:03:01.755Z,0.00
2019-01-29T06:05:30.019Z,0.00
2019-01-29T06:07:57.498Z,0.10
2019-01-29T06:10:24.963Z,0.10
2019-01-29T06:12:52.512Z,0.10
2019-01-29T06:15:20.507Z,0.20
2019-01-29T06:17:47.991Z,0.20
2019-01-29T06:20:18.586Z,0.20
2019-01-29T06:22:46.291Z,0.20
2019-01-29T06:25:13.803Z,0.20
2019-01-29T06:27:41.797Z,0.20
2019-01-29T06:30:10.400Z,0.30
2019-01-29T06:32:38.011Z,0.30
2019-01-29T06:35:07.984Z,0.30
2019-01-29T06:37:35.467Z,0.40
2019-01-29T06:40:04.041Z,0.40
2019-01-29T06:42:31.516Z,0.40
2019-01-29T06:44:59.199Z,0.40
2019-01-29T06:47:27.695Z,0.40
2019-01-29T06:49:55.209Z,0.40
2019-01-29T06:52:23.063Z,0.40
2019-01-29T06:54:50.592Z,0.40
2019-01-29T06:57:18.178Z,0.40
2019-01-29T06:59:45.691Z,0.40
2019-01-29T07:02:13.233Z,0.40
2019-01-29T07:04:40.756Z,0.40
2019-01-29T07:07:08.254Z,0.40
2019-01-29T07:09:35.854Z,0.40
2019-01-29T07:12:03.387Z,0.30
2019-01-29T07:14:30.891Z,0.40
2019-01-29T07:17:17.998Z,0.40
2019-01-29T07:19:48.530Z,0.40
2019-01-29T07:22:16.088Z,0.40
2019-01-29T07:24:43.628Z,0.40
2019-01-29T07:27:11.193Z,0.40
2019-01-29T07:29:38.759Z,0.40
2019-01-29T07:32:06.423Z,0.40
2019-01-29T07:34:34.015Z,0.40
2019-01-29T07:37:01.624Z,0.50
2019-01-29T07:39:29.521Z,0.50
2019-01-29T07:41:57.300Z,0.50
2019-01-29T07:44:25.091Z,0.50
2019-01-29T07:46:52.785Z,0.50
2019-01-29T07:49:20.893Z,0.60
2019-01-29T07:51:48.536Z,0.60
2019-01-29T07:54:16.158Z,0.60
2019-01-29T07:56:43.897Z,0.70
2019-01-29T07:59:11.559Z,0.70
2019-01-29T08:01:39.066Z,0.70
2019-01-29T08:04:06.535Z,0.70
2019-01-29T08:06:34.102Z,0.80
2019-01-29T08:09:01.695Z,0.80
2019-01-29T08:11:31.167Z,0.80
2019-01-29T08:13:58.683Z,0.90
2019-01-29T08:16:26.170Z,0.90
2019-01-29T08:18:53.979Z,0.90
2019-01-29T08:21:21.619Z,0.90
2019-01-29T08:23:50.154Z,0.90
2019-01-29T08:26:18.001Z,1.00
2019-01-29T08:28:45.597Z,1.00
2019-01-29T08:31:13.169Z,1.00
2019-01-29T08:33:40.955Z,1.10
2019-01-29T08:36:08.317Z,1.00
2019-01-29T08:38:35.833Z,1.10
2019-01-29T08:41:04.497Z,1.10
2019-01-29T08:43:32.175Z,1.10
2019-01-29T08:45:59.827Z,1.10
2019-01-29T08:48:27.689Z,1.10
2019-01-29T08:50:55.435Z,1.10
2019-01-29T08:53:23.007Z,1.10
2019-01-29T08:55:50.537Z,1.10
2019-01-29T08:58:18.068Z,1.10
2019-01-29T09:00:45.536Z,1.10
2019-01-29T09:03:13.058Z,1.10
2019-01-29T09:05:40.548Z,1.10
2019-01-29T09:08:08.089Z,1.10
2019-01-29T09:10:35.735Z,1.20
2019-01-29T09:13:03.295Z,1.10
2019-01-29T09:15:30.827Z,1.20
2019-01-29T09:17:58.334Z,1.20
2019-01-29T09:20:25.840Z,1.20
2019-01-29T09:22:53.468Z,1.30
2019-01-29T09:25:22.802Z,1.30
2019-01-29T09:27:50.577Z,1.40
2019-01-29T09:30:18.331Z,1.50
2019-01-29T09:32:45.815Z,1.50
2019-01-29T09:35:13.330Z,1.50
2019-01-29T09:37:40.903Z,1.50
2019-01-29T09:40:11.778Z,1.50
2019-01-29T09:42:39.669Z,1.50
2019-01-29T09:45:09.144Z,1.50
2019-01-29T09:47:36.720Z,1.50
2019-01-29T09:50:04.752Z,1.50
2019-01-29T09:52:32.254Z,1.40
2019-01-29T09:55:00.879Z,1.40
2019-01-29T09:57:28.526Z,1.40
2019-01-29T09:59:56.342Z,1.40
2019-01-29T10:02:23.960Z,1.40
2019-01-29T10:04:51.493Z,1.40
2019-01-29T10:07:19.030Z,1.50
2019-01-29T10:09:46.585Z,1.50
2019-01-29T10:12:14.685Z,1.50
2019-01-29T10:14:42.175Z,1.50
2019-01-29T10:17:10.277Z,1.60
2019-01-29T10:19:37.850Z,1.70
2019-01-29T10:22:05.435Z,1.70
2019-01-29T10:24:33.026Z,1.70
2019-01-29T10:27:00.626Z,1.70
2019-01-29T10:29:28.192Z,1.70
2019-01-29T10:31:55.709Z,1.70
2019-01-29T10:34:23.294Z,1.70
2019-01-29T10:36:50.805Z,1.80
2019-01-29T10:39:18.355Z,1.80
2019-01-29T10:41:45.780Z,1.70
2019-01-29T10:44:13.336Z,1.80
2019-01-29T10:46:40.860Z,1.80
2019-01-29T10:49:08.968Z,1.80
2019-01-29T10:51:36.894Z,1.80
2019-01-29T10:54:04.621Z,1.80
2019-01-29T10:56:32.257Z,1.80
2019-01-29T10:58:59.796Z,1.80
2019-01-29T11:01:27.310Z,1.70
2019-01-29T11:03:54.813Z,1.70
2019-01-29T11:06:22.340Z,1.80
2019-01-29T11:08:50.961Z,1.80
2019-01-29T11:11:18.618Z,1.90
2019-01-29T11:13:46.073Z,1.90
2019-01-29T11:16:13.567Z,1.90
2019-01-29T11:18:41.089Z,2.00
2019-01-29T11:21:08.586Z,2.00
2019-01-29T11:23:36.050Z,2.00
2019-01-29T11:26:04.589Z,2.10
2019-01-29T11:28:32.064Z,2.10
2019-01-29T11:30:59.880Z,2.20
2019-01-29T11:33:27.447Z,2.20
2019-01-29T11:35:54.791Z,2.30
2019-01-29T11:38:22.435Z,2.30
2019-01-29T11:40:50.685Z,2.40
2019-01-29T11:43:18.846Z,2.40
2019-01-29T11:45:51.535Z,2.40
2019-01-29T11:48:19.167Z,2.40
2019-01-29T11:50:46.701Z,2.40
2019-01-29T11:53:14.315Z,2.50
2019-01-29T11:55:41.681Z,2.50
2019-01-29T11:58:09.118Z,2.50
2019-01-29T12:00:41.726Z,2.50
2019-01-29T12:03:09.552Z,2.50
2019-01-29T12:05:37.430Z,2.50
2019-01-29T12:08:05.431Z,2.50
2019-01-29T12:10:32.934Z,2.40
2019-01-29T12:13:02.383Z,2.50
2019-01-29T12:15:30.260Z,2.50
2019-01-29T12:17:57.906Z,2.50
2019-01-29T12:20:25.564Z,2.60
2019-01-29T12:22:53.077Z,2.60
2019-01-29T12:25:20.899Z,2.70
2019-01-29T12:27:48.654Z,2.80
2019-01-29T12:30:18.794Z,2.80
2019-01-29T12:32:46.643Z,2.80
2019-01-29T12:35:14.203Z,2.80
2019-01-29T12:37:41.597Z,2.80
2019-01-29T12:40:09.187Z,2.90
2019-01-29T12:42:36.701Z,2.90
2019-01-29T12:45:05.987Z,2.90
2019-01-29T12:47:33.783Z,2.90
2019-01-29T12:50:01.873Z,2.90
2019-01-29T12:52:38.346Z,2.90
2019-01-29T12:55:06.599Z,2.90
2019-01-29T12:57:34.261Z,3.00
2019-01-29T13:00:01.764Z,3.00
2019-01-29T13:02:29.869Z,3.00
2019-01-29T13:04:57.481Z,3.00
2019-01-29T13:07:25.070Z,3.10
2019-01-29T13:09:52.557Z,3.10
2019-01-29T13:12:21.017Z,3.10
2019-01-29T13:14:48.486Z,3.20
2019-01-29T13:17:15.981Z,3.20
2019-01-29T13:19:43.441Z,3.20
2019-01-29T13:22:10.897Z,3.10
2019-01-29T13:24:38.347Z,3.20
2019-01-29T13:27:05.972Z,3.20
2019-01-29T13:29:33.816Z,3.20
2019-01-29T13:32:01.309Z,3.20
2019-01-29T13:34:29.019Z,3.20
2019-01-29T13:36:56.567Z,3.20
2019-01-29T13:39:23.938Z,3.20
2019-01-29T13:41:51.500Z,3.20
2019-01-29T13:44:18.953Z,3.20
2019-01-29T13:46:46.384Z,3.20
2019-01-29T13:49:13.989Z,3.30
2019-01-29T13:51:41.815Z,3.20
2019-01-29T13:54:09.316Z,3.30
2019-01-29T13:56:38.987Z,3.30
2019-01-29T13:59:06.333Z,3.40
2019-01-29T14:01:33.843Z,3.30
2019-01-29T14:04:06.193Z,3.30
2019-01-29T14:06:30.668Z,3.30
2019-01-29T14:08:58.807Z,3.30
2019-01-29T14:11:26.262Z,3.30
2019-01-29T14:13:53.832Z,3.30
2019-01-29T14:16:21.320Z,3.20
2019-01-29T14:18:49.159Z,3.30
2019-01-29T14:21:16.676Z,3.20
2019-01-29T14:23:44.041Z,3.20
2019-01-29T14:26:12.603Z,3.20
2019-01-29T14:28:40.560Z,3.20
2019-01-29T14:31:08.095Z,3.20
2019-01-29T14:33:35.558Z,3.20
2019-01-29T14:36:03.642Z,3.20
2019-01-29T14:39:07.235Z,3.10
2019-01-29T14:41:36.669Z,3.10
2019-01-29T14:44:06.983Z,3.10
2019-01-29T14:46:34.476Z,3.10
2019-01-29T14:49:01.849Z,3.00
2019-01-29T14:51:29.429Z,3.10
2019-01-29T14:53:56.977Z,3.00
2019-01-29T14:56:24.732Z,3.00
2019-01-29T14:58:52.340Z,3.00
2019-01-29T15:01:20.034Z,3.00
2019-01-29T15:03:47.575Z,3.00
2019-01-29T15:06:15.087Z,2.90
2019-01-29T15:08:42.556Z,2.90
2019-01-29T15:11:09.952Z,2.90
2019-01-29T15:13:38.276Z,2.80
2019-01-29T15:16:28.807Z,2.80
2019-01-29T15:19:01.410Z,2.80
2019-01-29T15:21:37.517Z,2.80
2019-01-29T15:23:58.228Z,2.80
2019-01-29T15:26:25.739Z,2.80
2019-01-29T15:28:53.232Z,2.80
2019-01-29T15:31:20.631Z,2.70
2019-01-29T15:33:48.210Z,2.70
2019-01-29T15:36:15.643Z,2.60
2019-01-29T15:38:43.080Z,2.60
2019-01-29T15:41:10.536Z,2.60
2019-01-29T15:43:38.475Z,2.60
2019-01-29T15:46:06.342Z,2.60
2019-01-29T15:48:33.889Z,2.50
2019-01-29T15:51:01.382Z,2.40
2019-01-29T15:53:28.904Z,2.40
2019-01-29T15:55:56.371Z,2.40
2019-01-29T15:58:24.491Z,2.30
2019-01-29T16:00:52.018Z,2.30
2019-01-29T16:03:19.553Z,2.30
2019-01-29T16:05:47.032Z,2.30
2019-01-29T16:08:14.680Z,2.20
2019-01-29T16:10:42.337Z,2.20
2019-01-29T16:13:09.793Z,2.20
2019-01-29T16:15:38.148Z,2.20
2019-01-29T16:18:05.958Z,2.20
2019-01-29T16:20:33.439Z,2.10
2019-01-29T16:23:00.930Z,2.10
2019-01-29T16:25:28.759Z,2.00
2019-01-29T16:27:56.258Z,2.00
2019-01-29T16:30:25.221Z,2.00
2019-01-29T16:32:52.729Z,1.90
2019-01-29T16:35:24.309Z,1.90
2019-01-29T16:37:51.670Z,1.90
2019-01-29T16:40:20.136Z,1.90
2019-01-29T16:42:47.942Z,1.80
2019-01-29T16:45:18.350Z,1.70
2019-01-29T16:47:46.241Z,1.70
2019-01-29T16:50:14.129Z,1.70
2019-01-29T16:52:42.202Z,1.60
2019-01-29T16:55:12.214Z,1.60
2019-01-29T16:57:39.742Z,1.50
2019-01-29T17:00:11.406Z,1.50
2019-01-29T17:02:39.060Z,1.50
2019-01-29T17:05:07.301Z,1.40
2019-01-29T17:07:34.754Z,1.40
2019-01-29T17:10:02.329Z,1.30
2019-01-29T17:12:30.473Z,1.30
2019-01-29T17:14:57.941Z,1.20
2019-01-29T17:17:25.406Z,1.20
2019-01-29T17:19:52.771Z,1.10
2019-01-29T17:22:20.816Z,1.10
2019-01-29T17:24:48.363Z,1.10
2019-01-29T17:27:15.889Z,1.10
2019-01-29T17:29:43.479Z,1.10
2019-01-29T17:32:10.908Z,1.10
2019-01-29T17:34:38.312Z,1.10
2019-01-29T17:37:05.800Z,1.00
2019-01-29T17:39:33.370Z,1.00
2019-01-29T17:42:00.813Z,0.90
2019-01-29T17:44:28.318Z,0.90
2019-01-29T17:46:55.768Z,0.90
2019-01-29T17:49:23.159Z,0.90
2019-01-29T17:51:50.657Z,0.90
2019-01-29T17:54:18.106Z,0.90
2019-01-29T17:56:45.897Z,0.90
2019-01-29T17:59:13.337Z,0.90
2019-01-29T18:01:40.853Z,0.90
2019-01-29T18:04:08.343Z,0.90
2019-01-29T18:06:35.783Z,0.80
2019-01-29T18:09:08.128Z,0.80
2019-01-29T18:11:35.900Z,0.80
2019-01-29T18:14:03.997Z,0.80
2019-01-29T18:16:31.538Z,0.80
2019-01-29T18:18:58.964Z,0.80
2019-01-29T18:21:26.483Z,0.70
2019-01-29T18:23:53.923Z,0.70
2019-01-29T18:26:21.411Z,0.70
2019-01-29T18:28:48.818Z,0.70
2019-01-29T18:31:16.309Z,0.70
2019-01-29T18:33:43.783Z,0.70
2019-01-29T18:36:11.252Z,0.60
2019-01-29T18:38:38.707Z,0.70
2019-01-29T18:41:06.231Z,0.70
2019-01-29T18:43:33.666Z,0.60
2019-01-29T18:46:01.283Z,0.60
2019-01-29T18:48:28.939Z,0.60
2019-01-29T18:50:56.689Z,0.60
2019-01-29T18:53:24.167Z,0.60
2019-01-29T18:55:51.636Z,0.50
2019-01-29T18:58:19.292Z,0.50
2019-01-29T19:00:54.296Z,0.40
2019-01-29T19:03:16.289Z,0.40
2019-01-29T19:05:43.897Z,0.40
2019-01-29T19:08:11.734Z,0.40
2019-01-29T19:10:39.671Z,0.40
2019-01-29T19:13:07.529Z,0.30
2019-01-29T19:15:35.130Z,0.30
2019-01-29T19:18:02.829Z,0.30
2019-01-29T19:20:30.158Z,0.30
2019-01-29T19:22:57.499Z,0.30
2019-01-29T19:25:24.865Z,0.20
2019-01-29T19:27:52.656Z,0.20
2019-01-29T19:30:25.984Z,0.20
2019-01-29T19:32:53.440Z,0.20
2019-01-29T19:35:21.183Z,0.20
2019-01-29T19:37:48.971Z,0.20
2019-01-29T19:40:16.432Z,0.20
2019-01-29T19:42:43.939Z,0.20
2019-01-29T19:45:17.278Z,0.20
2019-01-29T19:47:44.752Z,0.10
2019-01-29T19:50:15.186Z,0.10
2019-01-29T19:52:42.606Z,0.10
2019-01-29T19:55:10.059Z,0.10
2019-01-29T19:57:37.551Z,0.00
2019-01-29T20:00:08.521Z,0.10
2019-01-29T20:02:36.107Z,0.00
2019-01-29T20:05:04.190Z,0.00
2019-01-29T20:07:32.109Z,0.00
2019-01-29T20:09:59.633Z,0.00
2019-01-29T20:12:27.127Z,0.00
2019-01-29T20:14:54.728Z,0.00
2019-01-29T20:17:22.216Z,-0.10
2019-01-29T20:19:49.764Z,-0.10
2019-01-29T20:22:18.370Z,-0.10
2019-01-29T20:24:46.387Z,-0.10
2019-01-29T20:27:13.886Z,-0.10
2019-01-29T20:29:41.455Z,-0.10
2019-01-29T20:32:08.912Z,-0.10
2019-01-29T20:34:36.531Z,-0.10
2019-01-29T20:37:05.490Z,-0.10
2019-01-29T20:39:34.896Z,-0.20
2019-01-29T20:42:02.461Z,-0.20
2019-01-29T20:44:30.993Z,-0.20
2019-01-29T20:46:58.473Z,-0.20
2019-01-29T20:49:25.954Z,-0.20
2019-01-29T20:51:53.435Z,-0.20
2019-01-29T20:54:21.035Z,-0.20
2019-01-29T20:56:48.553Z,-0.20
2019-01-29T20:59:16.114Z,-0.30
2019-01-29T21:01:43.567Z,-0.30
2019-01-29T21:04:11.070Z,-0.20
2019-01-29T21:06:38.650Z,-0.30
2019-01-29T21:09:08.186Z,-0.30
2019-01-29T21:11:36.673Z,-0.30
2019-01-29T21:14:04.154Z,-0.30
2019-01-29T21:16:31.626Z,-0.30
2019-01-29T21:18:59.065Z,-0.30
2019-01-29T21:21:26.542Z,-0.30
2019-01-29T21:23:54.129Z,-0.40
2019-01-29T21:26:21.549Z,-0.40
2019-01-29T21:28:48.975Z,-0.40
2019-01-29T21:31:16.445Z,-0.40
2019-01-29T21:33:43.927Z,-0.40
2019-01-29T21:36:11.433Z,-0.40
2019-01-29T21:38:38.813Z,-0.50
2019-01-29T21:41:06.292Z,-0.50
2019-01-29T21:43:34.066Z,-0.50
2019-01-29T21:46:01.531Z,-0.50
2019-01-29T21:48:29.311Z,-0.50
2019-01-29T21:50:56.800Z,-0.50
2019-01-29T21:53:24.295Z,-0.60
2019-01-29T21:55:51.750Z,-0.60
2019-01-29T21:58:19.288Z,-0.60
2019-01-29T22:00:46.783Z,-0.70
2019-01-29T22:03:15.438Z,-0.60
2019-01-29T22:05:42.975Z,-0.70
2019-01-29T22:08:10.926Z,-0.70
2019-01-29T22:10:38.614Z,-0.80
2019-01-29T22:13:08.541Z,-0.80
2019-01-29T22:15:36.001Z,-0.80
2019-01-29T22:18:04.565Z,-0.80
2019-01-29T22:20:32.934Z,-0.80
2019-01-29T22:23:00.687Z,-0.80
2019-01-29T22:25:28.139Z,-0.90
2019-01-29T22:27:55.623Z,-0.90
2019-01-29T22:30:25.786Z,-0.90
2019-01-29T22:32:53.570Z,-0.90
2019-01-29T22:35:21.048Z,-0.90
2019-01-29T22:37:48.931Z,-1.00
2019-01-29T22:40:18.430Z,-1.00
2019-01-29T22:42:45.933Z,-1.00
2019-01-29T22:45:14.397Z,-0.90
2019-01-29T22:47:41.871Z,-0.90
2019-01-29T22:50:20.772Z,-0.90
2019-01-29T22:52:48.436Z,-0.90
2019-01-29T22:55:16.033Z,-0.80
2019-01-29T22:57:43.481Z,-0.80
2019-01-29T23:00:24.932Z,-0.90
2019-01-29T23:02:54.560Z,-0.90
2019-01-29T23:05:22.227Z,-0.80
2019-01-29T23:07:49.908Z,-0.90
2019-01-29T23:10:18.981Z,-0.90
2019-01-29T23:12:47.290Z,-0.90
2019-01-29T23:15:16.330Z,-0.90
2019-01-29T23:17:43.977Z,-1.00
2019-01-29T23:20:11.909Z,-0.90
2019-01-29T23:22:40.164Z,-0.90
2019-01-29T23:25:08.422Z,-0.90
2019-01-29T23:27:36.007Z,-0.90
2019-01-29T23:30:06.399Z,-0.90
2019-01-29T23:32:33.835Z,-0.90
2019-01-29T23:35:01.327Z,-0.90
2019-01-29T23:37:29.352Z,-0.90
2019-01-29T23:39:56.849Z,-0.90
2019-01-29T23:42:24.396Z,-0.90
2019-01-29T23:44:51.915Z,-0.80
2019-01-29T23:47:19.445Z,-0.80
2019-01-29T23:49:46.899Z,-0.80
2019-01-29T23:52:14.365Z,-0.80
2019-01-29T23:54:41.918Z,-0.80
2019-01-29T23:57:09.399Z,-0.90
2019-01-29T23:59:36.911Z,-0.90
